Ouzinkie, AK (99644)

9:15 AM AKST on February 13, 2016 (GMT -0900)
Akhiok AP, Akhiok, AK | | Change Station
CLOSE
Current Station
Airport
Location: Akhiok AP, Akhiok, AK,
Elevation: 43 ft
Nearby Weather Stations

Elev 43 ft 56.94 °N, 154.18 °W | Updated 19 minutes ago

Overcast
Overcast
37 °F
Feels Like 29 °F
N
13
Wind Variable Wind from ENE

Today
High -- | Low -- °F
--% Chance of Precip.
Yesterday
High -- | Low -- °F
Precip. -- in
Pressure 29.20 in
Visibility 10.0 miles
Clouds Mostly Cloudy 2600 ft
Overcast 9500 ft
Windchill 29 °F
Dew Point 34 °F
Humidity 87%
Rainfall 0.00 in
Snow Depth Not available.
8:48 AM 6:08 PM
Waxing Crescent, 33% visible
METAR PAKH 131756Z AUTO 06011KT 10SM BKN026 OVC095 03/01 A2920 RMK AO2
Pressure 29.20 in
Visibility 10.0 miles
Clouds Mostly Cloudy 2600 ft
Overcast 9500 ft
Windchill 29 °F
Dew Point 34 °F
Humidity 87%
Rainfall 0.00 in
Snow Depth Not available.
8:48 AM 6:08 PM
Waxing Crescent, 33% visible
METAR PAKH 131756Z AUTO 06011KT 10SM BKN026 OVC095 03/01 A2920 RMK AO2

10-Day Weather Forecast

Almanac

Astronomy

Feb. 13, 2016 Rise Set
Actual Time
Civil Twilight
Nautical Twilight
Astronomical Twilight
Moon
Length of Visible Light
Length of Day
Tomorrow will be .
, % of the Moon is Illuminated

Today's Extremes

State Highs State Lows

Community

WunderPhotos

Upload Photos

1,892,632 photos uploaded!

WunderBlog® & News

Nearby

Air Quality

  Air Quality AQ Index Pollutant
Not available.

Snow Depth

Station Depth Elevation

Earthquake Activity

City Distance Mag. Time & Date
Minimum magnitude displayed is 2.5.

Coastal Water Temperatures

Place Temperature

Stations

Nearby Weather Stations

Station Location Temp. Windchill Dew Point Humidity Wind Precip. Elev Updated Type
                   

Watches & Warnings

There are currently no watches in effect.